Terminal Aerodrome Forecast
Issued by NWS Glasgow, MT

Home | Current Version | Previous Version | Text Only | Print | Product List | Glossary On
Versions: 1 2 3 4 5 6 7 8 9 10 11 12 13 14 15 16 17 18 19 20
000
FTUS45 KGGW 290500
TAFGGW
TAF
KGGW 290534Z 2906/3006 25009KT P6SM SCT170
     FM300300 VRB03KT P6SM FEW130=

USA.gov is the U.S. government's official web portal to all federal, state and local government web resources and services.